WAT5188 NFFN-NFTF
Flight info
| Callsign | WAT5188 |
|---|---|
| Flight time | 1h 15m |
| Altitude | 33000 |
| Route | ECHO NA B598 HOBAT HOBAT1A |
| Aircraft | B38M/M-SDE1FGHILORVWXY/HB1 |
Departure
| Time | 2026-04-23 20:56 |
|---|---|
| Airport | Nadi International Airport (NFFN) |
Arrival
| Time | 2026-04-23 22:11 |
|---|---|
| Airport | Fua'amotu International Airport (NFTF) |
| Time | Latitude | Longitude | Altitude | Speed | Heading |
|---|---|---|---|---|---|
| 2026-04-23 20:07 | -17.75155 | 177.45066 | 56 ft | 0 kts | 192° |
| 2026-04-23 20:44 | -17.75150 | 177.45067 | 50 ft | 2 kts | 192° |
| 2026-04-23 20:45 | -17.75140 | 177.45069 | 56 ft | 2 kts | 192° |
| 2026-04-23 20:45 | -17.75129 | 177.45071 | 56 ft | 2 kts | 192° |
| 2026-04-23 20:45 | -17.75119 | 177.45074 | 56 ft | 2 kts | 192° |
| 2026-04-23 20:45 | -17.75108 | 177.45076 | 56 ft | 2 kts | 192° |
| 2026-04-23 20:46 | -17.75098 | 177.45080 | 56 ft | 2 kts | 211° |
| 2026-04-23 20:46 | -17.75089 | 177.45087 | 57 ft | 2 kts | 247° |
| 2026-04-23 20:46 | -17.75088 | 177.45092 | 56 ft | 0 kts | 268° |
| 2026-04-23 20:50 | -17.75085 | 177.45079 | 57 ft | 6 kts | 283° |
| 2026-04-23 20:51 | -17.75070 | 177.45013 | 57 ft | 11 kts | 288° |
| 2026-04-23 20:51 | -17.75045 | 177.44931 | 50 ft | 13 kts | 285° |
| 2026-04-23 20:51 | -17.75036 | 177.44894 | 56 ft | 0 kts | 284° |
| 2026-04-23 20:54 | -17.75029 | 177.44861 | 57 ft | 10 kts | 284° |
| 2026-04-23 20:55 | -17.75009 | 177.44758 | 51 ft | 14 kts | 259° |
| 2026-04-23 20:55 | -17.75028 | 177.44727 | 56 ft | 0 kts | 220° |
| 2026-04-23 20:55 | -17.75087 | 177.44675 | 49 ft | 45 kts | 220° |
| 2026-04-23 20:55 | -17.75566 | 177.44287 | 53 ft | 126 kts | 217° |
| 2026-04-23 20:56 | -17.76438 | 177.43576 | 65 ft | 188 kts | 218° |
| 2026-04-23 20:56 | -17.77579 | 177.42612 | 372 ft | 234 kts | 219° |
| 2026-04-23 20:56 | -17.78893 | 177.41476 | 1297 ft | 247 kts | 220° |
| 2026-04-23 20:56 | -17.80201 | 177.40329 | 2570 ft | 251 kts | 219° |
| 2026-04-23 20:57 | -17.81614 | 177.39136 | 3434 ft | 264 kts | 215° |
| 2026-04-23 20:57 | -17.83098 | 177.37996 | 4580 ft | 266 kts | 212° |
| 2026-04-23 20:57 | -17.84648 | 177.36861 | 5503 ft | 278 kts | 211° |
| 2026-04-23 20:57 | -17.86361 | 177.35895 | 6347 ft | 284 kts | 197° |
| 2026-04-23 20:58 | -17.88321 | 177.35637 | 7229 ft | 286 kts | 169° |
| 2026-04-23 20:58 | -17.90123 | 177.36409 | 8254 ft | 280 kts | 139° |
| 2026-04-23 20:58 | -17.91299 | 177.38006 | 9140 ft | 283 kts | 112° |
| 2026-04-23 20:58 | -17.91714 | 177.40025 | 9987 ft | 284 kts | 89° |
| 2026-04-23 20:59 | -17.91499 | 177.42096 | 10820 ft | 291 kts | 84° |
| 2026-04-23 20:59 | -17.91538 | 177.44267 | 11359 ft | 306 kts | 95° |
| 2026-04-23 20:59 | -17.91776 | 177.46543 | 11921 ft | 320 kts | 96° |
| 2026-04-23 20:59 | -17.92028 | 177.48852 | 12711 ft | 324 kts | 96° |
| 2026-04-23 21:00 | -17.92306 | 177.51244 | 13298 ft | 337 kts | 96° |
| 2026-04-23 21:00 | -17.92611 | 177.53713 | 13949 ft | 344 kts | 96° |
| 2026-04-23 21:00 | -17.92910 | 177.56219 | 14664 ft | 348 kts | 96° |
| 2026-04-23 21:00 | -17.93208 | 177.58761 | 15346 ft | 353 kts | 96° |
| 2026-04-23 21:01 | -17.93510 | 177.61341 | 16024 ft | 358 kts | 96° |
| 2026-04-23 21:01 | -17.93812 | 177.63949 | 16659 ft | 362 kts | 96° |
| 2026-04-23 21:01 | -17.94119 | 177.66592 | 17253 ft | 367 kts | 96° |
| 2026-04-23 21:01 | -17.94430 | 177.69265 | 17872 ft | 371 kts | 95° |
| 2026-04-23 21:02 | -17.94635 | 177.71052 | 18239 ft | 374 kts | 95° |
| 2026-04-23 21:02 | -17.95056 | 177.74700 | 18982 ft | 379 kts | 95° |
| 2026-04-23 21:02 | -17.95375 | 177.77462 | 19546 ft | 382 kts | 95° |
| 2026-04-23 21:02 | -17.95696 | 177.80248 | 20062 ft | 386 kts | 95° |
| 2026-04-23 21:03 | -17.96017 | 177.83059 | 20574 ft | 390 kts | 95° |
| 2026-04-23 21:03 | -17.96342 | 177.85901 | 21073 ft | 393 kts | 95° |
| 2026-04-23 21:03 | -17.96671 | 177.88764 | 21558 ft | 397 kts | 95° |
| 2026-04-23 21:03 | -17.97003 | 177.91653 | 22028 ft | 400 kts | 95° |
| 2026-04-23 21:04 | -17.97335 | 177.94567 | 22503 ft | 403 kts | 95° |
| 2026-04-23 21:04 | -17.97668 | 177.97501 | 22923 ft | 407 kts | 95° |
| 2026-04-23 21:04 | -17.98005 | 178.00463 | 23345 ft | 410 kts | 95° |
| 2026-04-23 21:04 | -17.98342 | 178.03443 | 23769 ft | 413 kts | 95° |
| 2026-04-23 21:05 | -17.98682 | 178.06447 | 24182 ft | 415 kts | 95° |
| 2026-04-23 21:05 | -17.98909 | 178.08446 | 24443 ft | 417 kts | 95° |
| 2026-04-23 21:05 | -17.99253 | 178.11484 | 24846 ft | 420 kts | 95° |
| 2026-04-23 21:05 | -17.99597 | 178.14544 | 25247 ft | 424 kts | 95° |
| 2026-04-23 21:06 | -17.99945 | 178.17628 | 25637 ft | 427 kts | 95° |
| 2026-04-23 21:06 | -18.00293 | 178.20730 | 26031 ft | 430 kts | 95° |
| 2026-04-23 21:06 | -18.00643 | 178.23853 | 26397 ft | 432 kts | 95° |
| 2026-04-23 21:06 | -18.00994 | 178.26995 | 26788 ft | 433 kts | 95° |
| 2026-04-23 21:07 | -18.01347 | 178.30154 | 27125 ft | 437 kts | 95° |
| 2026-04-23 21:07 | -18.01703 | 178.33337 | 27472 ft | 440 kts | 95° |
| 2026-04-23 21:07 | -18.02058 | 178.36540 | 27817 ft | 442 kts | 95° |
| 2026-04-23 21:07 | -18.02415 | 178.39759 | 28120 ft | 446 kts | 95° |
| 2026-04-23 21:08 | -18.02775 | 178.43000 | 28453 ft | 448 kts | 95° |
| 2026-04-23 21:08 | -18.03136 | 178.46258 | 28780 ft | 450 kts | 95° |
| 2026-04-23 21:08 | -18.03497 | 178.49527 | 29082 ft | 452 kts | 95° |
| 2026-04-23 21:08 | -18.03859 | 178.52819 | 29386 ft | 455 kts | 95° |
| 2026-04-23 21:09 | -18.04489 | 178.56082 | 29673 ft | 459 kts | 109° |
| 2026-04-23 21:09 | -18.05872 | 178.59111 | 29991 ft | 461 kts | 118° |
| 2026-04-23 21:09 | -18.07415 | 178.62080 | 30216 ft | 466 kts | 118° |
| 2026-04-23 21:09 | -18.08978 | 178.65062 | 30595 ft | 465 kts | 118° |
| 2026-04-23 21:10 | -18.10554 | 178.68032 | 30969 ft | 465 kts | 119° |
| 2026-04-23 21:10 | -18.12137 | 178.71003 | 31195 ft | 468 kts | 119° |
| 2026-04-23 21:10 | -18.13733 | 178.73997 | 31444 ft | 470 kts | 119° |
| 2026-04-23 21:10 | -18.15330 | 178.76994 | 31700 ft | 471 kts | 119° |
| 2026-04-23 21:11 | -18.16936 | 178.80008 | 31909 ft | 474 kts | 119° |
| 2026-04-23 21:11 | -18.18548 | 178.83037 | 32165 ft | 475 kts | 119° |
| 2026-04-23 21:11 | -18.20166 | 178.86076 | 32403 ft | 478 kts | 119° |
| 2026-04-23 21:11 | -18.21793 | 178.89137 | 32637 ft | 480 kts | 119° |
| 2026-04-23 21:12 | -18.23425 | 178.92205 | 32891 ft | 481 kts | 119° |
| 2026-04-23 21:12 | -18.25061 | 178.95289 | 33039 ft | 484 kts | 119° |
| 2026-04-23 21:12 | -18.28349 | 179.01488 | 33037 ft | 485 kts | 119° |
| 2026-04-23 21:13 | -18.31629 | 179.07678 | 33046 ft | 485 kts | 119° |
| 2026-04-23 21:13 | -18.34910 | 179.13877 | 33036 ft | 485 kts | 119° |
| 2026-04-23 21:14 | -18.38184 | 179.20069 | 33038 ft | 483 kts | 119° |
| 2026-04-23 21:14 | -18.41452 | 179.26256 | 33040 ft | 484 kts | 119° |
| 2026-04-23 21:15 | -18.44718 | 179.32444 | 33037 ft | 483 kts | 119° |
| 2026-04-23 21:15 | -18.47960 | 179.38593 | 33049 ft | 484 kts | 119° |
| 2026-04-23 21:16 | -18.51225 | 179.44792 | 33048 ft | 484 kts | 119° |
| 2026-04-23 21:16 | -18.54489 | 179.50999 | 33049 ft | 484 kts | 119° |
| 2026-04-23 21:17 | -18.57754 | 179.57207 | 33038 ft | 484 kts | 119° |
| 2026-04-23 21:17 | -18.61010 | 179.63408 | 33052 ft | 483 kts | 119° |
| 2026-04-23 21:18 | -18.64263 | 179.69610 | 33043 ft | 483 kts | 119° |
| 2026-04-23 21:18 | -18.67515 | 179.75815 | 33049 ft | 484 kts | 119° |
| 2026-04-23 21:19 | -18.70769 | 179.82030 | 33035 ft | 484 kts | 119° |
| 2026-04-23 21:19 | -18.74019 | 179.88246 | 33027 ft | 484 kts | 119° |
| 2026-04-23 21:20 | -18.77270 | 179.94466 | 33049 ft | 485 kts | 119° |
| 2026-04-23 21:20 | -18.80514 | -179.99303 | 33046 ft | 484 kts | 118° |
| 2026-04-23 21:21 | -18.83739 | -179.93067 | 33089 ft | 484 kts | 118° |
| 2026-04-23 21:21 | -18.86968 | -179.86820 | 33099 ft | 485 kts | 118° |
| 2026-04-23 21:22 | -18.90198 | -179.80565 | 33100 ft | 484 kts | 118° |
| 2026-04-23 21:22 | -18.93424 | -179.74313 | 33096 ft | 486 kts | 119° |
| 2026-04-23 21:23 | -18.96654 | -179.68045 | 33101 ft | 486 kts | 118° |
| 2026-04-23 21:23 | -18.99884 | -179.61768 | 33111 ft | 486 kts | 118° |
| 2026-04-23 21:24 | -19.03094 | -179.55528 | 33101 ft | 486 kts | 118° |
| 2026-04-23 21:24 | -19.06316 | -179.49255 | 33109 ft | 486 kts | 118° |
| 2026-04-23 21:25 | -19.09541 | -179.42972 | 33098 ft | 486 kts | 118° |
| 2026-04-23 21:25 | -19.12758 | -179.36697 | 33092 ft | 486 kts | 118° |
| 2026-04-23 21:26 | -19.15975 | -179.30416 | 33106 ft | 485 kts | 118° |
| 2026-04-23 21:26 | -19.19191 | -179.24130 | 33095 ft | 486 kts | 118° |
| 2026-04-23 21:27 | -19.22406 | -179.17841 | 33105 ft | 486 kts | 118° |
| 2026-04-23 21:27 | -19.25616 | -179.11551 | 33097 ft | 485 kts | 118° |
| 2026-04-23 21:28 | -19.28823 | -179.05259 | 33089 ft | 484 kts | 118° |
| 2026-04-23 21:28 | -19.32028 | -178.98970 | 33099 ft | 487 kts | 118° |
| 2026-04-23 21:29 | -19.35239 | -178.92659 | 33100 ft | 486 kts | 118° |
| 2026-04-23 21:29 | -19.38446 | -178.86351 | 33098 ft | 487 kts | 118° |
| 2026-04-23 21:30 | -19.41629 | -178.80082 | 33103 ft | 486 kts | 118° |
| 2026-04-23 21:30 | -19.44833 | -178.73765 | 33103 ft | 487 kts | 118° |
| 2026-04-23 21:31 | -19.48037 | -178.67444 | 33103 ft | 486 kts | 118° |
| 2026-04-23 21:31 | -19.51238 | -178.61119 | 33110 ft | 488 kts | 118° |
| 2026-04-23 21:32 | -19.54443 | -178.54783 | 33097 ft | 487 kts | 118° |
| 2026-04-23 21:32 | -19.57639 | -178.48457 | 33098 ft | 487 kts | 118° |
| 2026-04-23 21:33 | -19.60837 | -178.42125 | 33100 ft | 487 kts | 118° |
| 2026-04-23 21:33 | -19.64033 | -178.35791 | 33093 ft | 486 kts | 118° |
| 2026-04-23 21:34 | -19.67228 | -178.29451 | 33101 ft | 488 kts | 118° |
| 2026-04-23 21:34 | -19.70427 | -178.23099 | 33101 ft | 488 kts | 118° |
| 2026-04-23 21:35 | -19.73622 | -178.16746 | 33103 ft | 488 kts | 118° |
| 2026-04-23 21:35 | -19.76811 | -178.10399 | 33105 ft | 488 kts | 118° |
| 2026-04-23 21:36 | -19.81605 | -178.00842 | 33107 ft | 488 kts | 118° |
| 2026-04-23 21:37 | -19.84798 | -177.94471 | 33105 ft | 488 kts | 118° |
| 2026-04-23 21:37 | -19.87984 | -177.88102 | 33111 ft | 488 kts | 118° |
| 2026-04-23 21:38 | -19.91172 | -177.81728 | 33106 ft | 489 kts | 118° |
| 2026-04-23 21:38 | -19.94355 | -177.75350 | 33115 ft | 489 kts | 118° |
| 2026-04-23 21:39 | -19.97517 | -177.69014 | 33111 ft | 488 kts | 118° |
| 2026-04-23 21:39 | -20.00731 | -177.62614 | 33107 ft | 487 kts | 119° |
| 2026-04-23 21:40 | -20.03949 | -177.56317 | 33112 ft | 488 kts | 118° |
| 2026-04-23 21:40 | -20.07187 | -177.49965 | 33106 ft | 488 kts | 118° |
| 2026-04-23 21:41 | -20.10418 | -177.43615 | 33106 ft | 488 kts | 118° |
| 2026-04-23 21:41 | -20.13650 | -177.37259 | 33112 ft | 488 kts | 118° |
| 2026-04-23 21:42 | -20.16880 | -177.30899 | 33098 ft | 489 kts | 118° |
| 2026-04-23 21:42 | -20.18496 | -177.27712 | 32806 ft | 488 kts | 118° |
| 2026-04-23 21:42 | -20.20096 | -177.24555 | 32303 ft | 482 kts | 118° |
| 2026-04-23 21:42 | -20.21686 | -177.21419 | 31826 ft | 478 kts | 118° |
| 2026-04-23 21:43 | -20.23247 | -177.18338 | 31603 ft | 467 kts | 118° |
| 2026-04-23 21:43 | -20.24770 | -177.15331 | 31463 ft | 456 kts | 118° |
| 2026-04-23 21:43 | -20.26257 | -177.12392 | 31328 ft | 445 kts | 118° |
| 2026-04-23 21:43 | -20.27704 | -177.09532 | 31198 ft | 433 kts | 118° |
| 2026-04-23 21:44 | -20.29112 | -177.06746 | 31049 ft | 422 kts | 118° |
| 2026-04-23 21:44 | -20.30494 | -177.04010 | 30717 ft | 418 kts | 118° |
| 2026-04-23 21:44 | -20.31880 | -177.01264 | 30213 ft | 423 kts | 118° |
| 2026-04-23 21:44 | -20.33279 | -176.98493 | 29625 ft | 426 kts | 118° |
| 2026-04-23 21:45 | -20.34681 | -176.95715 | 29129 ft | 425 kts | 118° |
| 2026-04-23 21:45 | -20.36078 | -176.92944 | 28679 ft | 423 kts | 118° |
| 2026-04-23 21:45 | -20.37469 | -176.90185 | 28245 ft | 422 kts | 118° |
| 2026-04-23 21:45 | -20.38853 | -176.87436 | 27775 ft | 420 kts | 118° |
| 2026-04-23 21:46 | -20.40232 | -176.84697 | 27300 ft | 419 kts | 118° |
| 2026-04-23 21:46 | -20.41603 | -176.81973 | 26875 ft | 416 kts | 118° |
| 2026-04-23 21:46 | -20.42966 | -176.79262 | 26426 ft | 414 kts | 118° |
| 2026-04-23 21:46 | -20.44324 | -176.76563 | 25986 ft | 412 kts | 118° |
| 2026-04-23 21:47 | -20.45676 | -176.73871 | 25552 ft | 411 kts | 118° |
| 2026-04-23 21:47 | -20.47022 | -176.71193 | 25109 ft | 409 kts | 118° |
| 2026-04-23 21:47 | -20.48364 | -176.68519 | 24676 ft | 408 kts | 118° |
| 2026-04-23 21:47 | -20.49700 | -176.65858 | 24255 ft | 406 kts | 118° |
| 2026-04-23 21:48 | -20.51027 | -176.63211 | 23815 ft | 404 kts | 118° |
| 2026-04-23 21:48 | -20.52350 | -176.60572 | 23385 ft | 402 kts | 118° |
| 2026-04-23 21:48 | -20.53667 | -176.57944 | 22966 ft | 401 kts | 118° |
| 2026-04-23 21:48 | -20.54978 | -176.55326 | 22537 ft | 399 kts | 118° |
| 2026-04-23 21:49 | -20.56283 | -176.52719 | 22104 ft | 398 kts | 118° |
| 2026-04-23 21:49 | -20.57584 | -176.50119 | 21697 ft | 396 kts | 118° |
| 2026-04-23 21:49 | -20.58877 | -176.47533 | 21293 ft | 394 kts | 118° |
| 2026-04-23 21:49 | -20.60163 | -176.44961 | 20878 ft | 392 kts | 118° |
| 2026-04-23 21:50 | -20.61439 | -176.42409 | 20454 ft | 385 kts | 118° |
| 2026-04-23 21:50 | -20.62666 | -176.39952 | 20072 ft | 375 kts | 118° |
| 2026-04-23 21:50 | -20.63887 | -176.37507 | 19690 ft | 363 kts | 118° |
| 2026-04-23 21:50 | -20.65057 | -176.35164 | 19316 ft | 352 kts | 119° |
| 2026-04-23 21:51 | -20.66175 | -176.32919 | 18947 ft | 343 kts | 118° |
| 2026-04-23 21:51 | -20.67248 | -176.30678 | 18564 ft | 334 kts | 118° |
| 2026-04-23 21:51 | -20.68307 | -176.28466 | 18224 ft | 330 kts | 118° |
| 2026-04-23 21:51 | -20.69365 | -176.26258 | 17850 ft | 336 kts | 118° |
| 2026-04-23 21:52 | -20.70439 | -176.24020 | 17495 ft | 340 kts | 118° |
| 2026-04-23 21:52 | -20.71519 | -176.21770 | 17161 ft | 340 kts | 118° |
| 2026-04-23 21:52 | -20.72230 | -176.20288 | 16924 ft | 338 kts | 118° |
| 2026-04-23 21:52 | -20.73297 | -176.18062 | 16566 ft | 336 kts | 118° |
| 2026-04-23 21:53 | -20.74700 | -176.15135 | 16117 ft | 332 kts | 118° |
| 2026-04-23 21:53 | -20.75746 | -176.12950 | 15752 ft | 329 kts | 117° |
| 2026-04-23 21:53 | -20.76786 | -176.10778 | 15397 ft | 328 kts | 118° |
| 2026-04-23 21:53 | -20.77822 | -176.08616 | 15047 ft | 326 kts | 117° |
| 2026-04-23 21:54 | -20.78518 | -176.07162 | 14839 ft | 325 kts | 117° |
| 2026-04-23 21:54 | -20.79542 | -176.05021 | 14483 ft | 322 kts | 117° |
| 2026-04-23 21:54 | -20.80557 | -176.02898 | 14127 ft | 320 kts | 117° |
| 2026-04-23 21:54 | -20.81565 | -176.00789 | 13784 ft | 317 kts | 117° |
| 2026-04-23 21:55 | -20.82887 | -175.98023 | 13338 ft | 314 kts | 117° |
| 2026-04-23 21:55 | -20.83557 | -175.96618 | 13115 ft | 313 kts | 117° |
| 2026-04-23 21:55 | -20.84544 | -175.94553 | 12747 ft | 311 kts | 117° |
| 2026-04-23 21:55 | -20.85520 | -175.92505 | 12397 ft | 308 kts | 117° |
| 2026-04-23 21:56 | -20.86493 | -175.90467 | 12081 ft | 307 kts | 117° |
| 2026-04-23 21:56 | -20.87448 | -175.88465 | 11771 ft | 305 kts | 117° |
| 2026-04-23 21:56 | -20.88410 | -175.86447 | 11440 ft | 304 kts | 117° |
| 2026-04-23 21:56 | -20.89365 | -175.84443 | 11093 ft | 301 kts | 117° |
| 2026-04-23 21:57 | -20.90325 | -175.82429 | 10773 ft | 299 kts | 117° |
| 2026-04-23 21:57 | -20.91254 | -175.80477 | 10463 ft | 298 kts | 117° |
| 2026-04-23 21:57 | -20.92191 | -175.78511 | 10131 ft | 293 kts | 117° |
| 2026-04-23 21:57 | -20.93093 | -175.76615 | 9994 ft | 273 kts | 117° |
| 2026-04-23 21:58 | -20.93925 | -175.74864 | 9707 ft | 256 kts | 117° |
| 2026-04-23 21:58 | -20.94711 | -175.73210 | 9385 ft | 243 kts | 117° |
| 2026-04-23 21:58 | -20.95456 | -175.71645 | 9090 ft | 230 kts | 117° |
| 2026-04-23 21:58 | -20.96153 | -175.70180 | 8823 ft | 218 kts | 117° |
| 2026-04-23 21:59 | -20.96819 | -175.68773 | 8577 ft | 207 kts | 117° |
| 2026-04-23 21:59 | -20.97451 | -175.67445 | 8352 ft | 193 kts | 117° |
| 2026-04-23 21:59 | -20.98028 | -175.66225 | 8154 ft | 177 kts | 117° |
| 2026-04-23 22:00 | -20.99190 | -175.63786 | 7866 ft | 191 kts | 117° |
| 2026-04-23 22:00 | -20.99795 | -175.62509 | 7685 ft | 193 kts | 116° |
| 2026-04-23 22:00 | -21.00399 | -175.61235 | 7418 ft | 191 kts | 116° |
| 2026-04-23 22:00 | -21.01000 | -175.59969 | 7185 ft | 189 kts | 116° |
| 2026-04-23 22:01 | -21.01593 | -175.58718 | 6965 ft | 188 kts | 117° |
| 2026-04-23 22:01 | -21.02184 | -175.57471 | 6772 ft | 187 kts | 117° |
| 2026-04-23 22:01 | -21.02773 | -175.56230 | 6557 ft | 186 kts | 116° |
| 2026-04-23 22:01 | -21.03357 | -175.54998 | 6314 ft | 186 kts | 116° |
| 2026-04-23 22:02 | -21.03930 | -175.53768 | 6117 ft | 184 kts | 116° |
| 2026-04-23 22:02 | -21.04509 | -175.52546 | 5973 ft | 185 kts | 117° |
| 2026-04-23 22:02 | -21.05095 | -175.51318 | 5785 ft | 185 kts | 117° |
| 2026-04-23 22:02 | -21.05671 | -175.50102 | 5535 ft | 181 kts | 117° |
| 2026-04-23 22:03 | -21.06240 | -175.48899 | 5282 ft | 182 kts | 117° |
| 2026-04-23 22:03 | -21.06813 | -175.47695 | 5096 ft | 181 kts | 116° |
| 2026-04-23 22:03 | -21.07380 | -175.46495 | 4891 ft | 180 kts | 117° |
| 2026-04-23 22:03 | -21.07945 | -175.45303 | 4703 ft | 179 kts | 117° |
| 2026-04-23 22:04 | -21.08509 | -175.44115 | 4519 ft | 178 kts | 117° |
| 2026-04-23 22:04 | -21.09068 | -175.42927 | 4399 ft | 179 kts | 117° |
| 2026-04-23 22:04 | -21.09628 | -175.41740 | 4305 ft | 178 kts | 117° |
| 2026-04-23 22:04 | -21.10187 | -175.40556 | 4210 ft | 176 kts | 117° |
| 2026-04-23 22:05 | -21.10747 | -175.39379 | 4153 ft | 177 kts | 118° |
| 2026-04-23 22:05 | -21.11304 | -175.38210 | 4135 ft | 177 kts | 117° |
| 2026-04-23 22:05 | -21.11855 | -175.37030 | 4066 ft | 178 kts | 117° |
| 2026-04-23 22:05 | -21.12414 | -175.35856 | 3989 ft | 179 kts | 117° |
| 2026-04-23 22:06 | -21.12992 | -175.34647 | 3878 ft | 186 kts | 118° |
| 2026-04-23 22:06 | -21.13592 | -175.33433 | 3725 ft | 181 kts | 118° |
| 2026-04-23 22:06 | -21.14180 | -175.32251 | 3502 ft | 181 kts | 118° |
| 2026-04-23 22:06 | -21.14761 | -175.31064 | 3244 ft | 176 kts | 118° |
| 2026-04-23 22:07 | -21.15277 | -175.29965 | 3039 ft | 160 kts | 117° |
| 2026-04-23 22:07 | -21.15821 | -175.28936 | 2642 ft | 158 kts | 123° |
| 2026-04-23 22:07 | -21.16419 | -175.27978 | 2383 ft | 154 kts | 126° |
| 2026-04-23 22:07 | -21.17046 | -175.27051 | 2252 ft | 155 kts | 126° |
| 2026-04-23 22:08 | -21.17639 | -175.26141 | 2191 ft | 145 kts | 124° |
| 2026-04-23 22:08 | -21.18201 | -175.25201 | 2078 ft | 153 kts | 123° |
| 2026-04-23 22:08 | -21.18778 | -175.24216 | 1924 ft | 157 kts | 122° |
| 2026-04-23 22:08 | -21.19331 | -175.23188 | 1777 ft | 158 kts | 120° |
| 2026-04-23 22:09 | -21.19883 | -175.22174 | 1551 ft | 155 kts | 122° |
| 2026-04-23 22:09 | -21.20422 | -175.21189 | 1260 ft | 153 kts | 122° |
| 2026-04-23 22:09 | -21.20994 | -175.20219 | 962 ft | 157 kts | 127° |
| 2026-04-23 22:09 | -21.21601 | -175.19241 | 764 ft | 157 kts | 124° |
| 2026-04-23 22:10 | -21.22167 | -175.18269 | 558 ft | 151 kts | 123° |
| 2026-04-23 22:10 | -21.22722 | -175.17327 | 384 ft | 148 kts | 124° |
| 2026-04-23 22:10 | -21.23268 | -175.16389 | 213 ft | 149 kts | 124° |
| 2026-04-23 22:10 | -21.23805 | -175.15475 | 116 ft | 134 kts | 122° |
| 2026-04-23 22:11 | -21.24218 | -175.14762 | 120 ft | 88 kts | 122° |
| 2026-04-23 22:11 | -21.24474 | -175.14322 | 123 ft | 51 kts | 122° |
| 2026-04-23 22:11 | -21.24624 | -175.14066 | 125 ft | 33 kts | 122° |
| 2026-04-23 22:11 | -21.24684 | -175.13948 | 126 ft | 9 kts | 90° |
| 2026-04-23 22:12 | -21.24640 | -175.13906 | 127 ft | 10 kts | 8° |
| 2026-04-23 22:12 | -21.24565 | -175.13892 | 125 ft | 1 kts | 5° |
| 2026-04-23 22:12 | -21.24557 | -175.13902 | 127 ft | 1 kts | 299° |
| 2026-04-23 22:12 | -21.24559 | -175.13907 | 125 ft | 1 kts | 237° |
| 2026-04-23 22:13 | -21.24587 | -175.13914 | 123 ft | 6 kts | 172° |
| 2026-04-23 22:13 | -21.24654 | -175.13916 | 124 ft | 15 kts | 204° |
| 2026-04-23 22:13 | -21.24652 | -175.14015 | 122 ft | 19 kts | 302° |
| 2026-04-23 22:13 | -21.24571 | -175.14154 | 121 ft | 23 kts | 302° |
| 2026-04-23 22:14 | -21.24479 | -175.14305 | 123 ft | 25 kts | 319° |
| 2026-04-23 22:14 | -21.24324 | -175.14266 | 124 ft | 25 kts | 33° |
| 2026-04-23 22:14 | -21.24207 | -175.14214 | 124 ft | 11 kts | 2° |
| 2026-04-23 22:14 | -21.24184 | -175.14227 | 120 ft | 3 kts | 296° |
| 2026-04-23 22:15 | -21.24180 | -175.14256 | 123 ft | 0 kts | 266° |